createdAt,value
2022-08-18T00:01:50.522Z,20.56
2022-08-18T00:04:55.348Z,20.57
2022-08-18T00:08:00.931Z,20.57
2022-08-18T00:11:05.895Z,20.46
2022-08-18T00:14:09.710Z,20.53
2022-08-18T00:17:13.014Z,20.51
2022-08-18T00:20:18.580Z,20.53
2022-08-18T00:23:21.625Z,20.54
2022-08-18T00:26:25.774Z,20.47
2022-08-18T00:29:28.642Z,20.49
2022-08-18T00:32:34.109Z,20.49
2022-08-18T00:35:38.838Z,20.54
2022-08-18T00:38:41.832Z,20.56
2022-08-18T00:41:45.914Z,20.51
2022-08-18T00:44:49.629Z,20.48
2022-08-18T00:47:54.006Z,20.47
2022-08-18T00:51:00.229Z,20.48
2022-08-18T00:54:07.193Z,20.49
2022-08-18T00:57:12.381Z,20.46
2022-08-18T01:00:18.846Z,20.59
2022-08-18T01:03:25.088Z,20.45
2022-08-18T01:06:33.403Z,20.38
2022-08-18T01:09:36.869Z,20.32
2022-08-18T01:12:45.353Z,20.28
2022-08-18T01:15:49.336Z,20.32
2022-08-18T01:19:10.135Z,20.30
2022-08-18T01:22:20.231Z,20.38
2022-08-18T01:25:42.030Z,20.33
2022-08-18T01:28:46.735Z,20.33
2022-08-18T01:31:55.748Z,20.32
2022-08-18T01:34:58.994Z,20.20
2022-08-18T01:38:01.731Z,20.10
2022-08-18T01:41:27.239Z,20.09
2022-08-18T01:44:30.631Z,20.00
2022-08-18T01:47:47.312Z,19.92
2022-08-18T01:50:54.457Z,19.85
2022-08-18T01:53:58.364Z,20.01
2022-08-18T01:57:03.461Z,19.98
2022-08-18T02:00:07.577Z,19.96
2022-08-18T02:03:16.237Z,19.91
2022-08-18T02:06:32.348Z,19.94
2022-08-18T02:09:37.908Z,19.94
2022-08-18T02:12:43.069Z,19.83
2022-08-18T02:15:45.894Z,19.76
2022-08-18T02:18:49.076Z,19.81
2022-08-18T02:21:52.722Z,19.85
2022-08-18T02:24:58.709Z,19.79
2022-08-18T02:28:02.754Z,19.81
2022-08-18T02:31:07.174Z,19.94
2022-08-18T02:34:13.980Z,20.00
2022-08-18T02:37:17.105Z,19.97
2022-08-18T02:40:20.132Z,20.01
2022-08-18T02:43:24.523Z,19.98
2022-08-18T02:46:29.699Z,19.98
2022-08-18T02:49:33.160Z,20.02
2022-08-18T02:52:36.511Z,20.04
2022-08-18T02:55:39.949Z,20.04
2022-08-18T02:58:43.941Z,19.99
2022-08-18T03:01:48.772Z,20.06
2022-08-18T03:04:53.001Z,20.16
2022-08-18T03:07:55.655Z,20.24
2022-08-18T03:10:58.382Z,20.33
2022-08-18T03:14:02.449Z,20.44
2022-08-18T03:17:08.306Z,20.53
2022-08-18T03:20:12.465Z,20.62
2022-08-18T03:23:15.136Z,20.69
2022-08-18T03:26:19.337Z,20.75
2022-08-18T03:29:29.521Z,20.33
2022-08-18T03:32:34.531Z,19.91
2022-08-18T03:35:38.225Z,19.73
2022-08-18T03:38:43.204Z,19.76
2022-08-18T03:41:58.970Z,19.73
2022-08-18T03:45:13.371Z,19.70
2022-08-18T03:48:20.595Z,19.47
2022-08-18T03:51:25.746Z,19.27
2022-08-18T03:54:29.135Z,19.22
2022-08-18T03:57:34.442Z,19.23
2022-08-18T04:00:43.258Z,19.12
2022-08-18T04:03:47.945Z,19.18
2022-08-18T04:06:55.471Z,19.19
2022-08-18T04:09:58.779Z,19.23
2022-08-18T04:13:01.418Z,19.15
2022-08-18T04:16:07.109Z,19.32
2022-08-18T04:19:13.437Z,19.36
2022-08-18T04:22:18.516Z,19.38
2022-08-18T04:25:21.811Z,19.41
2022-08-18T04:28:24.957Z,19.44
2022-08-18T04:31:31.451Z,19.46
2022-08-18T04:34:35.256Z,19.52
2022-08-18T04:37:39.783Z,19.55
2022-08-18T04:40:44.657Z,19.57
2022-08-18T04:43:48.076Z,19.56
2022-08-18T04:46:54.725Z,19.56
2022-08-18T04:49:57.392Z,19.56
2022-08-18T04:53:17.520Z,19.52
2022-08-18T04:56:26.465Z,19.53
2022-08-18T04:59:31.894Z,19.56
2022-08-18T05:02:42.240Z,19.54
2022-08-18T05:05:44.948Z,19.55
2022-08-18T05:08:48.162Z,19.55
2022-08-18T05:11:51.490Z,19.56
2022-08-18T05:14:57.819Z,19.54
2022-08-18T05:18:02.144Z,19.50
2022-08-18T05:21:05.120Z,19.49
2022-08-18T05:24:11.856Z,19.54
2022-08-18T05:27:15.152Z,19.61
2022-08-18T05:30:17.871Z,19.62
2022-08-18T05:33:22.030Z,19.61
2022-08-18T05:36:52.512Z,19.60
2022-08-18T05:40:00.183Z,19.63
2022-08-18T05:43:04.968Z,19.68
2022-08-18T05:46:09.085Z,19.70
2022-08-18T05:49:15.460Z,19.65
2022-08-18T05:52:22.915Z,19.64
2022-08-18T05:55:48.326Z,19.68
2022-08-18T05:58:55.376Z,19.71
2022-08-18T06:02:03.916Z,19.72
2022-08-18T06:05:12.765Z,19.76
2022-08-18T06:08:18.341Z,19.85
2022-08-18T06:11:22.335Z,19.90
2022-08-18T06:14:26.280Z,19.91
2022-08-18T06:17:52.351Z,19.89
2022-08-18T06:21:26.340Z,19.89
2022-08-18T06:24:38.161Z,19.92
2022-08-18T06:27:55.505Z,19.93
2022-08-18T06:31:06.324Z,19.94
2022-08-18T06:34:19.568Z,19.92
2022-08-18T06:37:31.862Z,19.91
2022-08-18T06:40:34.599Z,19.95
2022-08-18T06:43:39.968Z,19.93
2022-08-18T06:46:47.086Z,19.91
2022-08-18T06:49:55.213Z,19.95
2022-08-18T06:53:02.030Z,19.94
2022-08-18T06:56:26.450Z,19.98
2022-08-18T06:59:32.228Z,20.09
2022-08-18T07:02:52.307Z,20.14
2022-08-18T07:06:02.176Z,20.19
2022-08-18T07:09:25.438Z,20.22
2022-08-18T07:12:32.895Z,20.34
2022-08-18T07:15:36.395Z,20.43
2022-08-18T07:18:39.073Z,20.50
2022-08-18T07:21:42.210Z,20.51
2022-08-18T07:24:48.805Z,20.49
2022-08-18T07:27:55.993Z,20.50
2022-08-18T07:31:17.244Z,20.46
2022-08-18T07:34:26.522Z,20.45
2022-08-18T07:37:33.840Z,20.47
2022-08-18T07:40:44.235Z,20.42
2022-08-18T07:44:02.192Z,20.46
2022-08-18T07:47:11.074Z,20.45
2022-08-18T07:50:26.856Z,20.39
2022-08-18T07:53:54.778Z,20.39
2022-08-18T07:57:07.305Z,20.40
2022-08-18T08:00:26.734Z,20.45
2022-08-18T08:03:52.185Z,20.52
2022-08-18T08:07:23.352Z,20.63
2022-08-18T08:10:37.450Z,20.71
2022-08-18T08:13:55.846Z,20.82
2022-08-18T08:17:07.353Z,20.89
2022-08-18T08:20:22.167Z,21.04
2022-08-18T08:23:30.441Z,21.15
2022-08-18T08:26:45.533Z,21.21
2022-08-18T08:30:01.977Z,21.07
2022-08-18T08:33:11.326Z,21.29
2022-08-18T08:36:19.936Z,21.33
2022-08-18T08:39:26.869Z,21.29
2022-08-18T08:42:41.129Z,21.40
2022-08-18T08:45:50.514Z,21.53
2022-08-18T08:49:01.145Z,21.64
2022-08-18T08:52:10.544Z,21.79
2022-08-18T08:55:18.351Z,21.90
2022-08-18T08:58:26.467Z,21.97
2022-08-18T09:01:35.526Z,22.00
2022-08-18T09:05:07.520Z,22.06
2022-08-18T09:08:26.692Z,22.05
2022-08-18T09:11:58.736Z,22.00
2022-08-18T09:15:23.495Z,22.00
2022-08-18T09:18:43.560Z,21.95
2022-08-18T09:21:53.095Z,21.95
2022-08-18T09:24:56.548Z,21.88
2022-08-18T09:28:11.808Z,21.92
2022-08-18T09:31:19.958Z,21.98
2022-08-18T09:34:51.471Z,21.93
2022-08-18T09:38:20.363Z,21.95
2022-08-18T09:41:34.104Z,21.95
2022-08-18T09:45:02.125Z,21.97
2022-08-18T09:48:25.507Z,21.96
2022-08-18T09:51:39.871Z,21.89
2022-08-18T09:54:52.559Z,21.76
2022-08-18T09:58:15.360Z,21.70
2022-08-18T10:01:33.000Z,21.75
2022-08-18T10:04:48.679Z,21.81
2022-08-18T10:07:56.127Z,21.91
2022-08-18T10:11:14.124Z,21.95
2022-08-18T10:14:35.437Z,21.89
2022-08-18T10:17:51.827Z,21.88
2022-08-18T10:21:04.847Z,21.87
2022-08-18T10:24:36.161Z,21.84
2022-08-18T10:27:53.443Z,21.80
2022-08-18T10:34:51.667Z,21.88
2022-08-18T10:37:55.190Z,21.99
2022-08-18T10:41:10.181Z,22.23
2022-08-18T10:44:29.286Z,22.59
2022-08-18T10:47:33.494Z,22.90
2022-08-18T10:50:42.700Z,23.12
2022-08-18T10:53:51.897Z,23.48
2022-08-18T10:57:06.115Z,23.58
2022-08-18T11:00:12.388Z,23.77
2022-08-18T11:03:51.635Z,24.06
2022-08-18T11:06:58.264Z,24.29
2022-08-18T11:10:27.816Z,24.44
2022-08-18T11:13:46.317Z,24.46
2022-08-18T11:17:00.368Z,24.28
2022-08-18T11:20:09.733Z,24.32
2022-08-18T11:23:14.897Z,24.49
2022-08-18T11:26:19.483Z,24.52
2022-08-18T11:29:32.264Z,24.79
2022-08-18T11:32:39.429Z,25.06
2022-08-18T11:35:48.880Z,25.42
2022-08-18T11:38:56.143Z,25.76
2022-08-18T11:42:00.922Z,25.73
2022-08-18T11:45:11.843Z,25.53
2022-08-18T11:48:20.844Z,25.13
2022-08-18T11:51:32.587Z,24.83
2022-08-18T11:54:50.815Z,24.73
2022-08-18T11:58:00.292Z,24.76
2022-08-18T12:01:04.567Z,24.99
2022-08-18T12:04:23.021Z,25.21
2022-08-18T12:07:31.940Z,25.43
2022-08-18T12:10:36.485Z,25.54
2022-08-18T12:13:39.341Z,25.46
2022-08-18T12:16:46.442Z,25.63
2022-08-18T12:19:49.491Z,25.76
2022-08-18T12:22:57.694Z,26.07
2022-08-18T12:26:00.347Z,26.16
2022-08-18T12:29:03.077Z,26.53
2022-08-18T12:32:08.560Z,26.54
2022-08-18T12:35:22.357Z,26.80
2022-08-18T12:38:26.176Z,27.08
2022-08-18T12:41:32.001Z,27.29
2022-08-18T12:44:35.110Z,27.37
2022-08-18T12:47:42.329Z,27.46
2022-08-18T12:50:54.234Z,27.64
2022-08-18T12:53:59.487Z,27.55
2022-08-18T12:57:04.464Z,27.29
2022-08-18T13:03:37.169Z,26.73
2022-08-18T13:06:54.095Z,26.67
2022-08-18T13:10:03.221Z,26.87
2022-08-18T13:13:05.884Z,26.66
2022-08-18T13:16:09.481Z,26.54
2022-08-18T13:19:20.607Z,26.42
2022-08-18T13:22:32.843Z,26.72
2022-08-18T13:25:39.459Z,26.70
2022-08-18T13:28:57.117Z,26.81
2022-08-18T13:32:00.966Z,26.62
2022-08-18T13:35:13.311Z,26.35
2022-08-18T13:38:22.135Z,26.42
2022-08-18T13:41:33.276Z,26.31
2022-08-18T13:44:38.041Z,26.38
2022-08-18T13:47:42.229Z,26.32
2022-08-18T13:50:52.349Z,26.42
2022-08-18T13:54:26.536Z,26.57
2022-08-18T13:57:19.980Z,26.54
2022-08-18T14:00:30.547Z,26.49
2022-08-18T14:03:46.902Z,26.40
2022-08-18T14:06:57.383Z,26.44
2022-08-18T14:10:03.703Z,26.70
2022-08-18T14:13:20.507Z,26.53
2022-08-18T14:16:28.126Z,26.62
2022-08-18T14:19:48.352Z,26.44
2022-08-18T14:23:11.859Z,26.65
2022-08-18T14:26:32.591Z,26.75
2022-08-18T14:29:46.537Z,26.71
2022-08-18T14:32:50.581Z,26.76
2022-08-18T14:36:05.827Z,26.82
2022-08-18T14:39:11.179Z,26.72
2022-08-18T14:42:15.820Z,26.78
2022-08-18T14:45:26.946Z,26.92
2022-08-18T14:48:36.952Z,27.06
2022-08-18T14:51:42.561Z,26.94
2022-08-18T14:54:51.254Z,26.73
2022-08-18T14:57:54.317Z,26.82
2022-08-18T15:00:59.196Z,26.80
2022-08-18T15:04:19.266Z,26.68
2022-08-18T15:07:23.851Z,26.79
2022-08-18T15:10:28.375Z,26.73
2022-08-18T15:13:32.250Z,26.96
2022-08-18T15:16:39.774Z,26.79
2022-08-18T15:19:59.011Z,26.78
2022-08-18T15:23:28.185Z,26.77
2022-08-18T15:26:32.457Z,26.60
2022-08-18T15:29:41.516Z,26.73
2022-08-18T15:32:49.688Z,26.66
2022-08-18T15:35:53.500Z,26.48
2022-08-18T15:38:56.757Z,26.57
2022-08-18T15:42:00.762Z,26.56
2022-08-18T15:45:11.986Z,26.51
2022-08-18T15:48:17.609Z,26.49
2022-08-18T15:51:20.367Z,26.45
2022-08-18T15:54:23.331Z,26.38
2022-08-18T15:57:38.935Z,26.25
2022-08-18T16:00:45.849Z,26.19
2022-08-18T16:03:49.980Z,26.22
2022-08-18T16:06:56.297Z,26.22
2022-08-18T16:09:59.100Z,26.32
2022-08-18T16:13:04.588Z,26.17
2022-08-18T16:16:13.172Z,26.17
2022-08-18T16:19:15.849Z,26.23
2022-08-18T16:22:21.234Z,26.23
2022-08-18T16:25:25.263Z,26.34
2022-08-18T16:28:34.810Z,26.30
2022-08-18T16:31:38.154Z,26.36
2022-08-18T16:34:41.867Z,26.31
2022-08-18T16:37:44.558Z,26.31
2022-08-18T16:40:47.510Z,26.31
2022-08-18T16:43:51.544Z,26.27
2022-08-18T16:46:54.354Z,26.31
2022-08-18T16:49:58.691Z,26.30
2022-08-18T16:53:01.901Z,26.31
2022-08-18T16:56:05.205Z,26.29
2022-08-18T16:59:32.654Z,26.32
2022-08-18T17:02:53.255Z,26.32
2022-08-18T17:06:04.863Z,26.23
2022-08-18T17:09:10.284Z,26.12
2022-08-18T17:12:13.131Z,26.06
2022-08-18T17:15:17.193Z,25.97
2022-08-18T17:18:20.902Z,25.92
2022-08-18T17:21:26.892Z,25.83
2022-08-18T17:24:32.227Z,25.73
2022-08-18T17:27:37.347Z,25.61
2022-08-18T17:30:47.450Z,25.61
2022-08-18T17:33:50.177Z,25.46
2022-08-18T17:36:54.957Z,25.34
2022-08-18T17:40:03.524Z,25.31
2022-08-18T17:43:18.119Z,25.21
2022-08-18T17:46:27.454Z,25.09
2022-08-18T17:50:28.031Z,25.00
2022-08-18T17:53:21.940Z,24.90
2022-08-18T17:56:35.387Z,24.77
2022-08-18T17:59:51.865Z,24.66
2022-08-18T18:02:56.427Z,24.60
2022-08-18T18:06:03.906Z,24.50
2022-08-18T18:09:10.785Z,24.42
2022-08-18T18:12:23.554Z,24.35
2022-08-18T18:15:33.965Z,24.27
2022-08-18T18:18:41.836Z,24.14
2022-08-18T18:21:53.606Z,24.15
2022-08-18T18:25:07.642Z,24.09
2022-08-18T18:28:27.776Z,23.99
2022-08-18T18:31:32.473Z,23.87
2022-08-18T18:34:39.680Z,23.89
2022-08-18T18:37:49.285Z,23.82
2022-08-18T18:40:58.856Z,23.74
2022-08-18T18:44:09.411Z,23.70
2022-08-18T18:47:24.652Z,23.67
2022-08-18T18:50:34.791Z,23.59
2022-08-18T18:53:51.949Z,23.52
2022-08-18T18:56:57.413Z,23.53
2022-08-18T19:00:14.320Z,23.48
2022-08-18T19:03:24.558Z,23.43
2022-08-18T19:06:33.592Z,23.40
2022-08-18T19:09:48.516Z,23.34
2022-08-18T19:12:58.299Z,23.24
2022-08-18T19:16:11.867Z,23.20
2022-08-18T19:19:39.316Z,23.17
